Time;durP1;ratioP1;P1;durP2;ratioP2;P2;SDS_P1;SDS_P2;PMS_P1;PMS_P2;Temp;Humidity;BMP_temperature;BMP_pressure;BME280_temperature;BME280_humidity;BME280_pressure;Samples;Min_cycle;Max_cycle;Signal;HPM_P1;HPM_P2
2021/11/15 00:00:42;;;;;;;93.10;41.10;;;;;;;3.75;88.26;101541.48;103163;1317;25358;-67
2021/11/15 00:03:24;;;;;;;99.60;41.00;;;;;;;3.75;88.30;101545.02;102754;1315;25255;-66
2021/11/15 00:05:56;;;;;;;108.30;44.10;;;;;;;3.77;88.26;101545.50;103112;1315;24246;-66
2021/11/15 00:08:27;;;;;;;100.60;39.20;;;;;;;3.78;88.37;101549.98;103161;1314;22552;-66
2021/11/15 00:10:58;;;;;;;97.30;38.80;;;;;;;3.80;88.46;101552.02;103040;1311;22651;-66
2021/11/15 00:13:28;;;;;;;99.10;41.50;;;;;;;3.80;88.52;101553.69;103057;1311;22551;-66
2021/11/15 00:15:59;;;;;;;100.90;42.00;;;;;;;3.81;88.57;101556.44;102970;1313;22572;-67
2021/11/15 00:18:30;;;;;;;106.50;44.90;;;;;;;3.81;88.56;101555.80;103098;1315;22594;-66
2021/11/15 00:21:01;;;;;;;106.90;45.10;;;;;;;3.82;88.53;101556.67;103144;1311;25371;-66
2021/11/15 00:23:32;;;;;;;104.00;42.90;;;;;;;3.85;88.57;101554.62;103148;1312;22630;-66
2021/11/15 00:26:03;;;;;;;101.10;43.70;;;;;;;3.86;88.66;101560.05;102952;1309;22577;-66
2021/11/15 00:28:34;;;;;;;98.30;41.10;;;;;;;3.86;88.66;101561.16;103122;1312;25290;-66
2021/11/15 00:31:05;;;;;;;107.30;44.00;;;;;;;3.86;88.78;101561.95;103115;1311;24218;-67
2021/11/15 00:33:37;;;;;;;107.70;46.00;;;;;;;3.86;88.62;101565.73;103069;1312;22586;-66
2021/11/15 00:36:08;;;;;;;117.10;46.90;;;;;;;3.86;88.78;101564.79;103134;1311;22593;-66
2021/11/15 00:38:39;;;;;;;114.20;47.80;;;;;;;3.87;88.73;101563.84;102963;1313;22590;-66
2021/11/15 00:41:11;;;;;;;113.70;46.90;;;;;;;3.89;88.74;101562.34;103216;1311;25316;-64
2021/11/15 00:43:42;;;;;;;121.10;49.30;;;;;;;3.91;88.78;101559.40;103158;1312;24401;-71
2021/11/15 00:46:13;;;;;;;108.20;47.00;;;;;;;3.92;88.80;101561.12;103636;1313;23151;-63
2021/11/15 00:48:44;;;;;;;109.00;44.70;;;;;;;3.92;88.77;101557.42;103107;1314;22606;-63
2021/11/15 00:51:15;;;;;;;110.10;45.80;;;;;;;3.92;88.85;101555.20;103055;1314;26781;-63
2021/11/15 00:53:46;;;;;;;119.30;48.90;;;;;;;3.91;88.81;101547.16;103091;1309;22594;-63
2021/11/15 00:56:17;;;;;;;116.20;49.50;;;;;;;3.92;88.82;101547.86;103133;1313;22578;-65
2021/11/15 00:58:48;;;;;;;115.90;46.90;;;;;;;3.94;88.90;101551.25;103155;1315;22671;-64
2021/11/15 01:01:20;;;;;;;121.00;48.30;;;;;;;3.95;88.86;101552.27;103026;1308;25439;-64
2021/11/15 01:03:51;;;;;;;122.80;52.30;;;;;;;3.96;88.83;101556.05;103047;1314;22565;-63
2021/11/15 01:06:22;;;;;;;123.30;51.80;;;;;;;3.98;88.90;101556.29;103041;1313;22588;-63
2021/11/15 01:08:53;;;;;;;134.90;53.60;;;;;;;3.99;88.90;101554.54;103131;1313;22680;-64
2021/11/15 01:11:25;;;;;;;141.00;55.60;;;;;;;4.02;88.84;101556.10;103212;1312;22581;-63
2021/11/15 01:13:56;;;;;;;151.50;60.10;;;;;;;4.03;88.92;101559.80;103281;1315;25258;-63
2021/11/15 01:16:27;;;;;;;132.10;50.40;;;;;;;4.04;88.90;101565.25;103213;1314;25313;-63
2021/11/15 01:18:58;;;;;;;131.10;53.30;;;;;;;4.04;88.93;101568.09;103052;1315;22589;-66
2021/11/15 01:21:30;;;;;;;132.00;52.40;;;;;;;4.05;88.89;101575.83;103089;1312;22590;-63
2021/11/15 01:24:02;;;;;;;124.80;51.10;;;;;;;4.05;88.98;101575.13;103014;1312;23164;-64
2021/11/15 01:26:32;;;;;;;134.50;52.30;;;;;;;4.05;88.97;101576.70;103093;1314;22655;-64
2021/11/15 01:29:03;;;;;;;132.10;52.80;;;;;;;4.05;88.93;101578.59;102954;1315;303369;-63
2021/11/15 01:31:34;;;;;;;141.50;56.00;;;;;;;4.06;88.95;101578.83;103377;1314;22666;-65
2021/11/15 01:34:05;;;;;;;142.20;53.80;;;;;;;4.08;88.96;101579.52;103109;1312;25306;-63
2021/11/15 01:36:36;;;;;;;147.00;56.80;;;;;;;4.10;88.89;101581.96;103155;1314;22563;-65
2021/11/15 01:39:08;;;;;;;131.50;52.40;;;;;;;4.13;88.83;101579.42;103200;1314;25516;-63
2021/11/15 01:41:39;;;;;;;129.30;52.90;;;;;;;4.14;88.81;101580.36;103034;1311;22577;-64
2021/11/15 01:44:10;;;;;;;134.30;51.80;;;;;;;4.16;88.87;101581.30;103046;1314;22579;-64
2021/11/15 01:46:41;;;;;;;139.80;56.40;;;;;;;4.16;88.80;101581.61;103140;1314;24414;-64
2021/11/15 01:49:12;;;;;;;129.20;51.80;;;;;;;4.17;88.84;101580.98;103088;1311;22574;-64
2021/11/15 01:51:43;;;;;;;135.70;53.00;;;;;;;4.18;88.82;101579.55;103262;1316;24459;-64
2021/11/15 01:54:14;;;;;;;131.50;55.70;;;;;;;4.19;88.86;101580.65;103315;1313;24222;-64
2021/11/15 01:56:45;;;;;;;126.10;51.00;;;;;;;4.19;88.88;101579.39;103094;1314;22584;-63
2021/11/15 01:59:16;;;;;;;126.30;52.30;;;;;;;4.17;88.84;101578.36;103161;1312;22599;-63
2021/11/15 02:01:47;;;;;;;122.30;51.50;;;;;;;4.16;88.90;101580.75;103151;1311;22621;-64
2021/11/15 02:04:19;;;;;;;133.50;55.00;;;;;;;4.16;88.91;101578.15;103101;1315;23488;-63
2021/11/15 02:06:50;;;;;;;128.60;51.70;;;;;;;4.16;88.96;101574.11;103141;1315;22618;-64
2021/11/15 02:09:21;;;;;;;131.70;52.90;;;;;;;4.16;88.93;101573.32;103081;1312;25134;-64
2021/11/15 02:11:52;;;;;;;126.20;50.10;;;;;;;4.17;88.96;101569.45;102968;1313;25401;-63
2021/11/15 02:14:23;;;;;;;126.00;51.00;;;;;;;4.18;88.91;101572.83;103045;1314;24283;-63
2021/11/15 02:16:54;;;;;;;141.60;55.50;;;;;;;4.20;88.88;101572.98;103066;1314;22722;-64
2021/11/15 02:19:25;;;;;;;141.00;55.70;;;;;;;4.20;88.94;101569.51;103720;1296;25239;-64
2021/11/15 02:21:57;;;;;;;142.00;57.90;;;;;;;4.21;88.92;101565.31;103022;1313;25574;-63
2021/11/15 02:24:28;;;;;;;147.90;58.50;;;;;;;4.21;88.85;101566.11;102977;1308;25725;-64
2021/11/15 02:26:59;;;;;;;142.90;55.40;;;;;;;4.22;88.85;101562.15;103019;1315;25580;-63
2021/11/15 02:29:30;;;;;;;142.80;57.00;;;;;;;4.24;88.86;101559.23;103092;1314;24533;-63
2021/11/15 02:32:01;;;;;;;131.40;51.50;;;;;;;4.24;88.83;101562.14;103123;1311;22610;-63
2021/11/15 02:34:32;;;;;;;130.00;52.00;;;;;;;4.25;88.74;101557.80;103150;1313;24437;-63
2021/11/15 02:37:03;;;;;;;127.20;51.80;;;;;;;4.26;88.76;101560.00;103218;1315;23105;-63
2021/11/15 02:39:34;;;;;;;137.20;51.70;;;;;;;4.27;88.75;101556.42;103267;1314;23853;-63
2021/11/15 02:42:06;;;;;;;132.70;53.90;;;;;;;4.27;88.73;101554.85;103011;1311;26613;-63
2021/11/15 02:44:37;;;;;;;114.60;48.40;;;;;;;4.28;88.75;101553.04;103107;1313;25594;-63
2021/11/15 02:47:09;;;;;;;122.00;50.10;;;;;;;4.28;88.73;101552.57;103006;1311;26332;-63
2021/11/15 02:49:40;;;;;;;128.60;50.00;;;;;;;4.28;88.74;101548.54;103072;1308;23128;-64
2021/11/15 02:52:11;;;;;;;111.90;50.30;;;;;;;4.26;88.74;101549.89;103082;1315;22632;-63
2021/11/15 02:54:43;;;;;;;130.80;53.60;;;;;;;4.25;88.75;101547.37;103073;1313;24337;-63
2021/11/15 02:57:17;;;;;;;123.70;50.40;;;;;;;4.26;88.72;101549.27;103084;1314;25379;-64
2021/11/15 02:59:49;;;;;;;125.30;49.10;;;;;;;4.26;88.71;101549.98;103080;1313;25420;-64
2021/11/15 03:02:23;;;;;;;129.00;51.90;;;;;;;4.27;88.77;101553.05;103204;1309;24312;-62
2021/11/15 03:04:55;;;;;;;120.60;49.10;;;;;;;4.26;88.74;101556.69;103237;1314;22649;-63
2021/11/15 03:07:26;;;;;;;120.70;51.30;;;;;;;4.27;88.69;101559.13;103097;1315;24481;-63
2021/11/15 03:09:56;;;;;;;131.20;52.80;;;;;;;4.27;88.69;101562.13;103206;1315;25543;-64
2021/11/15 03:12:35;;;;;;;127.30;50.20;;;;;;;4.27;88.70;101569.31;103077;1308;25356;-63
2021/11/15 03:15:07;;;;;;;140.70;53.60;;;;;;;4.28;88.71;101563.31;103439;1308;22771;-64
2021/11/15 03:17:40;;;;;;;127.40;52.40;;;;;;;4.29;88.72;101563.39;103432;1308;22578;-64
2021/11/15 03:20:12;;;;;;;123.70;50.00;;;;;;;4.30;88.66;101560.14;103361;1314;22562;-63
2021/11/15 03:22:43;;;;;;;123.00;52.40;;;;;;;4.32;88.69;101556.89;103129;1312;24322;-64
2021/11/15 03:25:14;;;;;;;123.90;50.60;;;;;;;4.33;88.74;101557.27;103133;1310;22561;-64
2021/11/15 03:27:44;;;;;;;132.90;55.90;;;;;;;4.34;88.57;101553.79;103191;1309;22574;-64
2021/11/15 03:30:16;;;;;;;134.80;54.20;;;;;;;4.34;88.59;101554.41;103074;1314;24631;-65
2021/11/15 03:32:48;;;;;;;141.30;56.10;;;;;;;4.35;88.71;101556.46;103136;1311;24355;-63
2021/11/15 03:35:19;;;;;;;141.70;58.10;;;;;;;4.37;88.66;101556.29;103256;1313;24319;-66
2021/11/15 03:37:51;;;;;;;126.10;51.90;;;;;;;4.36;88.64;101557.33;103197;1313;23604;-68
2021/11/15 03:40:25;;;;;;;125.90;50.10;;;;;;;4.35;88.63;101558.67;103525;1309;25326;-67
2021/11/15 03:42:58;;;;;;;123.20;48.50;;;;;;;4.36;88.53;101558.84;103724;1315;24433;-64
2021/11/15 03:45:31;;;;;;;116.80;48.40;;;;;;;4.36;88.54;101553.54;103178;1310;22685;-65
2021/11/15 03:48:02;;;;;;;134.30;51.20;;;;;;;4.36;88.53;101553.63;103142;1313;22581;-64
2021/11/15 03:50:33;;;;;;;119.80;48.10;;;;;;;4.36;88.54;101551.63;103227;1314;22639;-64
2021/11/15 03:53:09;;;;;;;118.40;48.20;;;;;;;4.36;88.48;101550.62;103075;1314;24942;-66
2021/11/15 03:55:40;;;;;;;123.90;48.30;;;;;;;4.35;88.54;101554.48;103026;1311;22799;-65
2021/11/15 03:58:14;;;;;;;112.80;46.50;;;;;;;4.36;88.56;101549.83;103350;1313;22570;-65
2021/11/15 04:00:45;;;;;;;124.10;48.10;;;;;;;4.36;88.57;101549.51;103160;1313;25284;-64
2021/11/15 04:03:21;;;;;;;151.80;63.30;;;;;;;4.36;88.57;101550.06;103194;1309;22561;-64
2021/11/15 04:05:57;;;;;;;159.00;71.20;;;;;;;4.36;88.60;101546.98;103068;1310;22571;-65
2021/11/15 04:08:28;;;;;;;165.70;80.40;;;;;;;4.37;88.58;101539.86;103071;1314;22556;-64
2021/11/15 04:11:00;;;;;;;150.30;71.50;;;;;;;4.38;88.58;101543.58;103134;1309;23131;-66
2021/11/15 04:13:34;;;;;;;124.30;53.90;;;;;;;4.38;88.53;101540.64;103279;1313;22591;-65
2021/11/15 04:16:09;;;;;;;105.40;45.60;;;;;;;4.39;88.45;101541.83;103064;1312;25249;-66
2021/11/15 04:18:44;;;;;;;106.50;45.00;;;;;;;4.38;88.49;101543.26;103212;1315;24802;-65
2021/11/15 04:21:15;;;;;;;102.60;43.80;;;;;;;4.38;88.42;101547.83;103103;1314;22592;-65
2021/11/15 04:23:47;;;;;;;111.40;47.80;;;;;;;4.38;88.43;101546.17;103154;1314;22643;-65
2021/11/15 04:26:18;;;;;;;106.00;46.50;;;;;;;4.37;88.39;101552.73;103142;1314;24326;-64
2021/11/15 04:28:49;;;;;;;98.00;42.20;;;;;;;4.38;88.36;101550.13;103111;1314;23008;-64
2021/11/15 04:31:20;;;;;;;107.60;42.40;;;;;;;4.39;88.44;101550.03;103207;1314;22995;-65
2021/11/15 04:33:51;;;;;;;99.20;43.60;;;;;;;4.38;88.40;101549.02;103066;1314;22568;-65
2021/11/15 04:36:22;;;;;;;96.30;40.80;;;;;;;4.38;88.39;101548.86;103222;1314;25448;-65
2021/11/15 04:38:53;;;;;;;101.00;43.10;;;;;;;4.38;88.39;101555.27;103306;1313;24335;-65
2021/11/15 04:41:24;;;;;;;103.90;43.20;;;;;;;4.39;88.31;101555.57;103062;1314;22575;-65
2021/11/15 04:43:54;;;;;;;91.90;41.10;;;;;;;4.38;88.32;101550.84;103057;1314;23942;-65
2021/11/15 04:46:25;;;;;;;94.50;39.70;;;;;;;4.38;88.33;101549.49;103091;1314;26758;-65
2021/11/15 04:48:56;;;;;;;90.50;41.80;;;;;;;4.38;88.37;101548.39;103097;1310;22576;-65
2021/11/15 04:51:27;;;;;;;95.90;41.10;;;;;;;4.37;88.31;101549.02;103013;1314;25161;-64
2021/11/15 04:53:58;;;;;;;98.00;42.20;;;;;;;4.37;88.38;101548.78;103001;1309;25320;-65
2021/11/15 04:56:29;;;;;;;89.80;38.60;;;;;;;4.37;88.38;101549.33;103069;1315;25347;-65
2021/11/15 04:59:01;;;;;;;90.70;36.60;;;;;;;4.37;88.37;101555.58;102998;1309;25305;-65
2021/11/15 05:01:31;;;;;;;87.40;38.40;;;;;;;4.37;88.36;101560.23;103051;1314;22661;-65
2021/11/15 05:04:02;;;;;;;91.80;39.60;;;;;;;4.37;88.33;101562.53;103085;1316;22570;-64
2021/11/15 05:06:34;;;;;;;98.20;43.00;;;;;;;4.37;88.36;101560.95;102811;1317;22685;-63
2021/11/15 05:09:05;;;;;;;93.70;40.70;;;;;;;4.37;88.34;101561.34;103175;1314;25283;-63
2021/11/15 05:11:36;;;;;;;89.00;38.60;;;;;;;4.39;88.38;101561.57;102869;1315;22668;-65
2021/11/15 05:14:08;;;;;;;91.70;38.40;;;;;;;4.39;88.38;101562.91;103009;1314;22682;-65
2021/11/15 05:16:39;;;;;;;90.40;39.40;;;;;;;4.40;88.39;101561.73;102914;1316;25335;-65
2021/11/15 05:19:10;;;;;;;86.90;38.60;;;;;;;4.40;88.36;101562.04;103135;1315;24265;-64
2021/11/15 05:21:41;;;;;;;102.30;40.90;;;;;;;4.39;88.31;101562.52;103070;1315;22776;-64
2021/11/15 05:24:12;;;;;;;90.70;39.40;;;;;;;4.39;88.35;101558.64;103082;1314;22632;-65
2021/11/15 05:26:45;;;;;;;85.70;37.10;;;;;;;4.39;88.36;101560.14;103136;1315;22654;-66
2021/11/15 05:29:16;;;;;;;85.40;36.90;;;;;;;4.39;88.35;101558.32;103277;1310;26559;-64
2021/11/15 05:31:48;;;;;;;89.20;37.00;;;;;;;4.40;88.36;101555.48;103279;1310;25425;-65
2021/11/15 05:34:19;;;;;;;83.10;36.00;;;;;;;4.39;88.30;101551.14;103056;1311;24268;-65
2021/11/15 05:36:50;;;;;;;86.30;39.10;;;;;;;4.41;88.33;101554.36;103113;1316;27246;-66
2021/11/15 05:39:20;;;;;;;85.60;38.60;;;;;;;4.42;88.33;101554.13;103395;1315;25461;-64
2021/11/15 05:41:51;;;;;;;80.70;36.20;;;;;;;4.42;88.29;101557.69;103120;1315;25971;-65
2021/11/15 05:44:22;;;;;;;87.30;36.60;;;;;;;4.43;88.27;101558.78;103198;1315;22645;-65
2021/11/15 05:46:54;;;;;;;85.00;36.60;;;;;;;4.44;88.26;101561.55;103065;1315;22611;-65
2021/11/15 05:49:25;;;;;;;87.50;36.00;;;;;;;4.43;88.25;101558.94;103092;1315;25269;-65
2021/11/15 05:51:56;;;;;;;77.40;34.30;;;;;;;4.44;88.23;101559.73;103082;1316;23696;-65
2021/11/15 05:54:27;;;;;;;86.40;36.90;;;;;;;4.43;88.20;101563.60;103377;1316;24276;-65
2021/11/15 05:56:58;;;;;;;80.00;33.40;;;;;;;4.44;88.20;101561.70;103249;1313;22643;-65
2021/11/15 05:59:29;;;;;;;82.00;35.90;;;;;;;4.43;88.19;101563.83;103297;1315;23230;-65
2021/11/15 06:02:00;;;;;;;79.60;33.90;;;;;;;4.45;88.17;101564.80;103185;1316;25274;-65
2021/11/15 06:04:31;;;;;;;82.20;37.30;;;;;;;4.44;88.13;101571.50;103104;1315;22580;-65
2021/11/15 06:07:02;;;;;;;81.60;35.40;;;;;;;4.44;88.18;101567.39;103149;1316;22615;-65
2021/11/15 06:09:33;;;;;;;80.00;35.30;;;;;;;4.43;88.21;101571.02;103144;1316;22663;-65
2021/11/15 06:12:05;;;;;;;108.70;50.30;;;;;;;4.44;88.16;101573.80;103136;1311;22737;-65
2021/11/15 06:14:36;;;;;;;91.30;40.30;;;;;;;4.44;88.23;101574.82;103149;1314;25367;-65
2021/11/15 06:17:08;;;;;;;87.70;37.90;;;;;;;4.46;88.23;101580.96;102991;1309;22702;-66
2021/11/15 06:19:38;;;;;;;83.00;36.40;;;;;;;4.45;88.19;101583.26;103305;1314;22696;-64
2021/11/15 06:22:09;;;;;;;80.70;37.10;;;;;;;4.46;88.19;101589.50;103023;1317;24495;-64
2021/11/15 06:24:47;;;;;;;84.60;36.90;;;;;;;4.46;88.22;101596.14;103213;1315;22663;-69
2021/11/15 06:27:19;;;;;;;85.80;39.10;;;;;;;4.48;88.20;101596.59;103065;1315;24847;-68
2021/11/15 06:29:50;;;;;;;84.80;37.30;;;;;;;4.49;88.13;101595.88;103635;1315;24384;-67
2021/11/15 06:32:21;;;;;;;84.90;37.40;;;;;;;4.48;88.08;101592.33;103176;1314;22702;-67
2021/11/15 06:34:52;;;;;;;90.50;42.80;;;;;;;4.50;88.16;101593.66;102974;1312;25249;-66
2021/11/15 06:37:23;;;;;;;86.60;39.20;;;;;;;4.51;88.10;101595.55;103109;1311;22577;-65
2021/11/15 06:39:54;;;;;;;79.60;32.50;;;;;;;4.53;88.10;101597.52;103177;1316;26320;-69
2021/11/15 06:42:25;;;;;;;82.20;33.90;;;;;;;4.53;87.97;101592.70;103128;1312;24240;-65
2021/11/15 06:44:56;;;;;;;82.50;36.30;;;;;;;4.52;87.99;101591.83;103092;1309;22689;-67
2021/11/15 06:47:33;;;;;;;78.40;33.70;;;;;;;4.53;87.96;101593.17;103320;1312;26273;-66
2021/11/15 06:50:04;;;;;;;79.10;32.90;;;;;;;4.54;88.04;101592.69;103235;1311;22580;-68
2021/11/15 06:52:36;;;;;;;78.70;33.70;;;;;;;4.53;87.96;101591.98;103193;1310;22581;-69
2021/11/15 06:55:10;;;;;;;78.60;34.80;;;;;;;4.53;87.95;101594.73;103217;1313;24212;-67
2021/11/15 06:57:42;;;;;;;86.30;37.60;;;;;;;4.54;88.01;101600.82;103209;1315;24242;-66
2021/11/15 07:00:18;;;;;;;80.40;36.30;;;;;;;4.55;88.01;101599.79;103287;1314;22856;-68
2021/11/15 07:02:51;;;;;;;77.20;35.10;;;;;;;4.56;87.98;101597.10;103102;1311;22587;-68
2021/11/15 07:05:24;;;;;;;80.90;34.60;;;;;;;4.57;87.95;101601.60;103375;1311;22580;-67
2021/11/15 07:07:56;;;;;;;84.90;40.90;;;;;;;4.56;88.00;101600.97;103313;1317;25273;-67
2021/11/15 07:10:27;;;;;;;90.60;43.20;;;;;;;4.56;88.00;101604.44;103118;1311;22569;-68
2021/11/15 07:13:00;;;;;;;87.60;40.70;;;;;;;4.57;88.00;101606.09;103189;1314;24250;-64
2021/11/15 07:15:32;;;;;;;95.70;40.80;;;;;;;4.56;87.96;101606.34;103300;1314;22669;-65
2021/11/15 07:18:05;;;;;;;78.90;33.90;;;;;;;4.56;87.92;101604.29;103349;1316;25394;-66
2021/11/15 07:20:36;;;;;;;78.80;33.50;;;;;;;4.56;87.89;101608.23;103212;1310;22697;-65
2021/11/15 07:23:08;;;;;;;70.10;30.90;;;;;;;4.57;87.95;101607.75;103149;1312;22607;-65
2021/11/15 07:25:40;;;;;;;84.60;35.10;;;;;;;4.57;87.92;101609.02;103401;1309;24781;-67
2021/11/15 07:28:10;;;;;;;77.00;32.80;;;;;;;4.58;87.82;101607.98;103506;1315;24362;-65
2021/11/15 07:30:42;;;;;;;85.00;36.00;;;;;;;4.59;87.89;101610.59;103533;1312;24273;-65
2021/11/15 07:33:14;;;;;;;89.20;35.40;;;;;;;4.59;87.88;101612.48;103665;1309;22574;-66
2021/11/15 07:35:47;;;;;;;81.00;35.50;;;;;;;4.60;87.91;101611.36;105166;1314;23969;-66
2021/11/15 07:38:18;;;;;;;85.60;36.50;;;;;;;4.62;87.96;101608.67;103596;1310;24260;-65
2021/11/15 07:40:50;;;;;;;78.50;33.90;;;;;;;4.62;87.93;101610.40;103354;1309;24697;-65
2021/11/15 07:43:22;;;;;;;80.40;34.90;;;;;;;4.64;87.86;101608.50;103579;1313;22610;-65
2021/11/15 07:45:53;;;;;;;87.30;35.60;;;;;;;4.64;87.90;101607.15;103382;1317;22790;-65
2021/11/15 07:48:24;;;;;;;80.70;34.00;;;;;;;4.67;87.87;101607.13;103395;1313;22574;-64
2021/11/15 07:50:55;;;;;;;86.20;37.30;;;;;;;4.70;87.85;101604.74;103426;1315;24248;-64
2021/11/15 07:53:26;;;;;;;78.80;36.70;;;;;;;4.70;87.79;101608.52;103372;1308;24235;-63
2021/11/15 07:55:58;;;;;;;84.30;37.70;;;;;;;4.72;87.76;101611.20;103138;1313;25581;-63
2021/11/15 07:58:29;;;;;;;74.30;32.40;;;;;;;4.73;87.79;101609.77;103180;1308;26804;-62
2021/11/15 08:01:02;;;;;;;76.70;32.80;;;;;;;4.74;87.73;101606.45;103400;1316;25511;-64
2021/11/15 08:03:33;;;;;;;76.40;33.20;;;;;;;4.77;87.74;101608.71;103372;1313;22657;-64
2021/11/15 08:06:04;;;;;;;79.20;33.60;;;;;;;4.77;87.74;101611.95;103189;1314;25465;-64
2021/11/15 08:08:35;;;;;;;88.90;38.20;;;;;;;4.78;87.72;101610.21;103245;1315;22637;-63
2021/11/15 08:11:07;;;;;;;78.40;33.80;;;;;;;4.78;87.64;101609.33;103258;1310;22601;-61
2021/11/15 08:13:40;;;;;;;98.80;43.10;;;;;;;4.80;87.69;101613.99;103225;1311;22572;-64
2021/11/15 08:16:12;;;;;;;90.40;37.10;;;;;;;4.80;87.53;101610.13;103226;1314;22685;-63
2021/11/15 08:18:43;;;;;;;78.30;34.90;;;;;;;4.79;87.57;101612.66;103195;1308;25640;-63
2021/11/15 08:21:14;;;;;;;93.50;42.80;;;;;;;4.79;87.61;101612.73;103284;1313;22574;-62
2021/11/15 08:23:48;;;;;;;80.80;35.60;;;;;;;4.79;87.58;101610.13;103291;1312;22637;-62
2021/11/15 08:26:39;;;;;;;75.80;33.80;;;;;;;4.80;87.68;101611.23;103440;1308;24054;-63
2021/11/15 08:29:13;;;;;;;74.30;33.90;;;;;;;4.80;87.57;101611.87;103411;1313;26645;-62
2021/11/15 08:31:46;;;;;;;75.90;35.90;;;;;;;4.81;87.62;101610.90;103442;1308;22673;-64
2021/11/15 08:34:19;;;;;;;79.70;36.00;;;;;;;4.81;87.56;101611.92;103478;1315;22609;-63
2021/11/15 08:36:51;;;;;;;84.40;35.80;;;;;;;4.83;87.58;101610.17;103648;1316;22577;-63
2021/11/15 08:39:23;;;;;;;77.80;36.80;;;;;;;4.82;87.50;101609.23;103565;1313;22630;-63
2021/11/15 08:41:57;;;;;;;86.40;37.40;;;;;;;4.82;87.49;101610.35;103413;1311;22637;-64
2021/11/15 08:44:30;;;;;;;83.40;37.90;;;;;;;4.83;87.46;101608.20;103371;1309;25689;-62
2021/11/15 08:47:01;;;;;;;81.80;35.80;;;;;;;4.84;87.48;101601.23;103625;1315;23243;-63
2021/11/15 08:49:34;;;;;;;82.10;36.80;;;;;;;4.84;87.53;101604.79;103515;1313;22670;-64
2021/11/15 08:52:08;;;;;;;78.30;35.80;;;;;;;4.86;87.58;101603.91;103258;1315;22578;-62
2021/11/15 08:54:39;;;;;;;84.00;38.80;;;;;;;4.88;87.49;101608.55;103239;1309;25319;-64
2021/11/15 08:57:11;;;;;;;81.40;38.80;;;;;;;4.90;87.51;101610.60;103402;1315;22792;-64
2021/11/15 08:59:45;;;;;;;98.70;42.90;;;;;;;4.91;87.43;101614.54;103256;1311;22577;-63
2021/11/15 09:02:16;;;;;;;162.70;73.90;;;;;;;4.92;87.48;101619.52;103246;1309;22583;-62
2021/11/15 09:04:48;;;;;;;169.90;78.40;;;;;;;4.95;87.44;101617.51;103381;1308;22627;-64
2021/11/15 09:07:19;;;;;;;134.50;62.20;;;;;;;4.98;87.44;101617.19;103461;1309;22808;-64
2021/11/15 09:09:49;;;;;;;106.50;46.00;;;;;;;5.00;87.44;101621.20;103330;1315;22627;-65
2021/11/15 09:12:20;;;;;;;124.90;66.30;;;;;;;5.01;87.39;101626.88;103297;1315;23219;-65
2021/11/15 09:14:55;;;;;;;102.60;49.90;;;;;;;5.04;87.44;101628.45;103417;1308;22601;-65
2021/11/15 09:17:27;;;;;;;114.90;60.20;;;;;;;5.06;87.35;101627.48;103360;1309;22643;-66
2021/11/15 09:19:59;;;;;;;95.50;48.60;;;;;;;5.07;87.27;101624.92;103476;1308;23015;-68
2021/11/15 09:22:30;;;;;;;91.30;41.40;;;;;;;5.09;87.19;101627.92;103465;1313;22918;-65
2021/11/15 09:25:03;;;;;;;95.60;48.00;;;;;;;5.11;87.24;101625.61;103264;1313;22569;-65
2021/11/15 09:27:34;;;;;;;101.70;50.40;;;;;;;5.12;87.17;101626.55;103486;1314;22555;-66
2021/11/15 09:30:07;;;;;;;108.30;53.70;;;;;;;5.15;87.09;101627.88;103216;1310;323642;-63
2021/11/15 09:32:40;;;;;;;96.30;53.40;;;;;;;5.17;87.17;101624.54;103569;1315;23135;-66
2021/11/15 09:35:12;;;;;;;79.50;38.70;;;;;;;5.19;87.21;101620.87;103361;1310;26065;-66
2021/11/15 09:37:45;;;;;;;94.70;44.20;;;;;;;5.21;87.10;101618.00;103389;1311;24253;-64
2021/11/15 09:40:16;;;;;;;97.60;45.00;;;;;;;5.23;86.94;101619.11;103486;1314;25435;-64
2021/11/15 09:42:50;;;;;;;89.70;41.10;;;;;;;5.23;86.89;101618.23;103465;1314;22619;-65
2021/11/15 09:45:21;;;;;;;110.10;45.80;;;;;;;5.25;86.84;101621.54;103467;1308;25360;-65
2021/11/15 09:47:52;;;;;;;96.50;45.50;;;;;;;5.26;86.95;101621.04;103295;1310;22590;-65
2021/11/15 09:50:24;;;;;;;99.20;45.70;;;;;;;5.28;86.96;101623.33;103303;1310;22696;-64
2021/11/15 09:52:56;;;;;;;108.70;48.60;;;;;;;5.30;87.02;101624.40;103407;1311;25553;-65
2021/11/15 09:55:28;;;;;;;100.90;43.00;;;;;;;5.32;87.00;101625.10;103343;1311;22581;-65
2021/11/15 09:57:59;;;;;;;97.00;42.70;;;;;;;5.33;87.01;101625.50;103415;1315;24269;-66
2021/11/15 10:00:34;;;;;;;98.60;44.00;;;;;;;5.35;86.95;101620.88;103342;1308;25426;-64
2021/11/15 10:03:05;;;;;;;96.40;44.50;;;;;;;5.37;86.81;101621.41;103212;1312;22713;-64
2021/11/15 10:05:37;;;;;;;107.30;48.10;;;;;;;5.38;86.74;101620.37;103297;1312;22590;-65
2021/11/15 10:08:12;;;;;;;100.60;45.60;;;;;;;5.40;86.80;101621.63;103555;1313;25480;-64
2021/11/15 10:10:46;;;;;;;101.60;43.20;;;;;;;5.42;86.80;101622.73;103750;1312;22590;-64
2021/11/15 10:13:20;;;;;;;97.60;43.90;;;;;;;5.42;86.63;101622.61;103423;1313;22593;-65
2021/11/15 10:15:57;;;;;;;108.30;47.00;;;;;;;5.43;86.64;101620.32;103388;1308;22599;-64
2021/11/15 10:18:45;;;;;;;100.80;44.70;;;;;;;5.45;86.73;101620.78;103549;1309;23180;-64
2021/11/15 10:21:23;;;;;;;94.50;41.70;;;;;;;5.48;86.70;101615.77;103257;1308;22577;-65
2021/11/15 10:23:59;;;;;;;96.10;42.50;;;;;;;5.48;86.56;101614.73;103322;1311;22692;-66
2021/11/15 10:26:36;;;;;;;99.40;42.70;;;;;;;5.49;86.55;101613.30;103481;1313;24325;-64
2021/11/15 10:29:11;;;;;;;95.20;45.00;;;;;;;5.52;86.76;101610.52;103383;1308;22567;-64
2021/11/15 10:31:46;;;;;;;102.70;43.80;;;;;;;5.52;86.54;101601.23;103593;1309;25352;-64
2021/11/15 10:34:23;;;;;;;104.20;48.30;;;;;;;5.54;86.55;101597.11;103460;1309;22594;-65
2021/11/15 10:37:01;;;;;;;111.00;49.00;;;;;;;5.57;86.60;101595.26;103178;1308;25349;-65
2021/11/15 10:39:42;;;;;;;90.10;43.00;;;;;;;5.59;86.48;101596.98;103184;1313;22580;-65
2021/11/15 10:42:18;;;;;;;107.10;46.10;;;;;;;5.61;86.50;101593.16;103444;1308;22587;-65
2021/11/15 10:44:55;;;;;;;112.70;50.90;;;;;;;5.63;86.50;101589.17;103585;1312;24236;-65
2021/11/15 10:47:33;;;;;;;117.30;55.10;;;;;;;5.64;86.48;101590.02;103362;1313;22696;-65
2021/11/15 10:50:11;;;;;;;98.80;46.30;;;;;;;5.66;86.51;101591.36;103256;1308;22596;-65
2021/11/15 10:52:55;;;;;;;93.70;43.50;;;;;;;5.67;86.42;101589.84;103377;1308;22567;-65
2021/11/15 10:55:26;;;;;;;91.20;39.60;;;;;;;5.68;86.28;101591.02;103455;1308;22631;-64
2021/11/15 10:57:59;;;;;;;89.50;40.10;;;;;;;5.68;86.22;101592.29;103360;1316;22594;-64
2021/11/15 11:00:40;;;;;;;96.50;41.20;;;;;;;5.69;86.26;101595.83;103467;1315;24412;-64
2021/11/15 11:03:17;;;;;;;93.80;40.10;;;;;;;5.71;86.17;101595.89;103267;1309;22628;-65
2021/11/15 11:05:51;;;;;;;89.90;39.80;;;;;;;5.72;86.16;101598.73;103326;1315;23943;-64
2021/11/15 11:08:24;;;;;;;91.90;40.40;;;;;;;5.73;86.11;101599.59;103407;1308;25252;-64
2021/11/15 11:11:04;;;;;;;94.80;41.40;;;;;;;5.74;86.06;101599.17;103470;1309;22715;-63
2021/11/15 11:13:54;;;;;;;98.50;41.30;;;;;;;5.76;86.23;101594.18;103332;1308;24362;-64
2021/11/15 11:16:39;;;;;;;90.50;38.90;;;;;;;5.78;86.20;101592.89;103328;1315;22710;-63
2021/11/15 11:19:20;;;;;;;95.50;43.30;;;;;;;5.78;86.15;101587.27;103507;1311;22571;-64
2021/11/15 11:22:12;;;;;;;87.20;38.10;;;;;;;5.79;86.16;101588.43;103516;1309;22637;-66
2021/11/15 11:25:08;;;;;;;83.90;35.90;;;;;;;5.80;86.01;101582.25;103503;1315;25367;-65
2021/11/15 11:27:39;;;;;;;84.20;38.00;;;;;;;5.79;85.97;101578.61;103340;1309;24281;-64